Time;durP1;ratioP1;P1;durP2;ratioP2;P2;SDS_P1;SDS_P2;PMS_P1;PMS_P2;Temp;Humidity;BMP_temperature;BMP_pressure;BME280_temperature;BME280_humidity;BME280_pressure;Samples;Min_cycle;Max_cycle;Signal;HPM_P1;HPM_P2
2022/09/19 00:01:32;;;;;;;9.77;3.17;;;37.00;42.30;;;;;;5062335;28;20040;-63
2022/09/19 00:04:02;;;;;;;12.70;2.70;;;36.90;42.80;;;;;;5049247;28;20028;-65
2022/09/19 00:06:30;;;;;;;15.20;2.80;;;36.90;42.70;;;;;;5045971;28;20037;-64
2022/09/19 00:08:58;;;;;;;12.98;2.70;;;36.90;42.00;;;;;;5047272;28;20029;-62
2022/09/19 00:11:26;;;;;;;9.70;2.80;;;36.90;41.80;;;;;;5029714;28;20059;-63
2022/09/19 00:13:54;;;;;;;8.43;2.88;;;36.90;42.20;;;;;;5048042;28;20078;-64
2022/09/19 00:16:30;;;;;;;14.40;2.70;;;36.80;42.20;;;;;;5048995;28;20032;-63
2022/09/19 00:19:01;;;;;;;10.43;3.03;;;36.70;42.20;;;;;;5048384;28;20045;-63
2022/09/19 00:21:34;;;;;;;10.27;3.60;;;36.70;42.50;;;;;;5048058;28;20040;-65
2022/09/19 00:26:45;;;;;;;9.43;2.92;;;36.50;42.40;;;;;;5048751;28;20056;-63
2022/09/19 00:29:15;;;;;;;11.15;2.92;;;36.50;42.60;;;;;;5047484;28;20028;-64
2022/09/19 00:31:43;;;;;;;12.23;3.22;;;36.40;41.90;;;;;;5047865;28;20029;-63
2022/09/19 00:34:10;;;;;;;27.23;3.25;;;36.30;41.80;;;;;;5048706;28;20021;-63
2022/09/19 00:36:38;;;;;;;33.90;3.90;;;36.20;42.30;;;;;;5048205;28;20114;-65
2022/09/19 00:39:06;;;;;;;30.45;3.55;;;36.00;43.00;;;;;;5049709;28;20113;-62
2022/09/19 00:41:33;;;;;;;15.32;3.38;;;36.00;43.50;;;;;;5029449;28;20120;-64
2022/09/19 00:44:02;;;;;;;10.65;2.80;;;35.90;42.80;;;;;;5047731;28;20372;-65
2022/09/19 00:46:31;;;;;;;14.88;3.30;;;35.80;43.20;;;;;;5048191;28;20051;-63
2022/09/19 00:49:18;;;;;;;12.57;3.50;;;35.80;42.70;;;;;;5048166;28;20108;-64
2022/09/19 00:51:48;;;;;;;7.00;3.42;;;35.70;43.10;;;;;;5047587;28;20029;-63
2022/09/19 00:54:28;;;;;;;6.43;2.90;;;35.60;43.90;;;;;;5048268;28;20021;-67
2022/09/19 00:56:57;;;;;;;6.95;2.58;;;35.50;43.60;;;;;;5031627;28;20498;-64
2022/09/19 00:59:28;;;;;;;9.45;2.85;;;35.50;43.90;;;;;;5049359;28;20033;-65
2022/09/19 01:01:55;;;;;;;9.98;2.80;;;35.40;43.90;;;;;;5047558;28;20028;-64
2022/09/19 01:04:24;;;;;;;9.77;3.13;;;35.30;43.70;;;;;;5047498;28;20460;-63
2022/09/19 01:07:10;;;;;;;5.70;2.60;;;35.30;43.80;;;;;;5049738;28;20044;-63
2022/09/19 01:09:55;;;;;;;7.85;3.30;;;35.10;43.70;;;;;;5049862;28;20043;-64
2022/09/19 01:12:33;;;;;;;4.45;2.47;;;35.10;43.60;;;;;;5051257;28;20079;-66
2022/09/19 01:15:28;;;;;;;8.15;2.90;;;34.90;43.60;;;;;;5050491;28;20372;-67
2022/09/19 01:18:01;;;;;;;9.52;3.08;;;34.80;43.50;;;;;;5051048;28;20045;-65
2022/09/19 01:20:35;;;;;;;6.47;2.42;;;34.80;43.40;;;;;;5051440;28;20386;-66
2022/09/19 01:23:23;;;;;;;6.57;2.40;;;34.70;43.30;;;;;;5064841;28;20115;-64
2022/09/19 01:26:39;;;;;;;7.95;2.70;;;34.60;43.50;;;;;;5050114;28;20029;-65
2022/09/19 01:29:18;;;;;;;9.45;2.75;;;34.60;42.90;;;;;;4993642;28;20026;-64
2022/09/19 01:31:50;;;;;;;6.93;2.17;;;34.40;42.80;;;;;;4993069;28;20074;-66
2022/09/19 01:34:26;;;;;;;4.75;2.15;;;34.30;42.80;;;;;;4994262;28;20384;-65
2022/09/19 01:37:12;;;;;;;6.78;2.55;;;34.20;42.00;;;;;;4993407;28;20724;-64
2022/09/19 01:39:42;;;;;;;8.00;2.17;;;34.20;42.20;;;;;;4991732;28;20040;-64
2022/09/19 01:42:13;;;;;;;7.55;2.15;;;34.10;42.30;;;;;;4990963;28;20070;-65
2022/09/19 01:44:39;;;;;;;8.48;2.60;;;34.00;42.50;;;;;;4992601;28;20049;-65
2022/09/19 01:47:13;;;;;;;9.48;2.78;;;34.00;42.10;;;;;;4994098;28;20116;-67
2022/09/19 01:49:51;;;;;;;12.30;2.97;;;33.80;42.00;;;;;;4992822;28;20138;-64
2022/09/19 01:52:37;;;;;;;11.48;2.67;;;33.70;42.20;;;;;;5008665;28;20504;-66
2022/09/19 01:55:49;;;;;;;7.70;2.47;;;33.60;42.20;;;;;;4971801;28;20026;-64
2022/09/19 01:58:47;;;;;;;13.38;3.05;;;33.60;42.70;;;;;;4916495;29;20040;-66
2022/09/19 02:01:46;;;;;;;9.43;3.25;;;33.50;42.70;;;;;;4931645;29;20050;-66
2022/09/19 02:04:21;;;;;;;8.10;2.60;;;33.50;42.70;;;;;;4938344;29;20039;-64
2022/09/19 02:07:12;;;;;;;8.13;3.00;;;33.40;43.10;;;;;;4950994;29;20058;-65
2022/09/19 02:09:56;;;;;;;13.55;3.20;;;33.30;43.10;;;;;;4950277;29;20043;-61
2022/09/19 02:12:25;;;;;;;15.63;3.03;;;33.30;43.90;;;;;;4934971;29;20474;-64
2022/09/19 02:14:57;;;;;;;28.70;3.85;;;33.20;44.20;;;;;;4930756;29;20114;-64
2022/09/19 02:17:34;;;;;;;17.45;3.10;;;33.20;43.90;;;;;;4950620;29;20158;-64
2022/09/19 02:20:07;;;;;;;13.27;3.83;;;33.10;44.30;;;;;;4950464;28;20031;-64
2022/09/19 02:22:41;;;;;;;10.57;3.03;;;33.10;44.40;;;;;;4949550;29;20506;-64
2022/09/19 02:25:15;;;;;;;9.48;2.92;;;33.10;44.30;;;;;;4935495;29;20142;-64
2022/09/19 02:27:58;;;;;;;7.95;3.25;;;33.00;44.60;;;;;;4951373;29;20048;-64
2022/09/19 02:30:25;;;;;;;9.02;3.03;;;32.90;44.50;;;;;;4935527;29;20030;-63
2022/09/19 02:32:53;;;;;;;19.40;3.38;;;32.90;44.50;;;;;;4931717;29;20082;-64
2022/09/19 02:35:45;;;;;;;11.38;3.10;;;32.80;44.60;;;;;;5037374;28;20025;-65
2022/09/19 02:38:22;;;;;;;19.48;4.22;;;32.80;44.90;;;;;;5048964;28;20100;-63
2022/09/19 02:41:18;;;;;;;10.82;3.60;;;32.70;45.20;;;;;;5050380;28;20025;-63
2022/09/19 02:44:00;;;;;;;13.50;3.40;;;32.60;44.60;;;;;;5048353;28;20021;-64
2022/09/19 02:46:42;;;;;;;9.40;3.17;;;32.60;44.00;;;;;;5049596;28;20033;-63
2022/09/19 02:49:38;;;;;;;16.10;3.65;;;32.50;44.20;;;;;;5050903;28;20570;-63
2022/09/19 02:52:10;;;;;;;14.57;3.75;;;32.50;44.50;;;;;;5042645;28;20041;-63
2022/09/19 02:54:38;;;;;;;13.07;3.30;;;32.40;44.70;;;;;;5049905;28;20055;-63
2022/09/19 02:57:10;;;;;;;11.13;3.78;;;32.40;44.90;;;;;;5049859;28;20545;-61
2022/09/19 02:59:41;;;;;;;9.27;2.45;;;32.30;44.90;;;;;;5048835;28;20043;-62
2022/09/19 03:02:16;;;;;;;13.63;3.30;;;32.30;42.10;;;;;;5050286;28;20061;-61
2022/09/19 03:04:48;;;;;;;14.07;3.63;;;32.20;39.80;;;;;;5050166;28;20112;-64
2022/09/19 03:07:27;;;;;;;15.25;4.28;;;32.10;38.90;;;;;;5051595;28;20045;-63
2022/09/19 03:10:12;;;;;;;20.38;4.40;;;32.20;38.90;;;;;;5050329;28;20096;-63
2022/09/19 03:12:44;;;;;;;16.40;4.57;;;32.10;38.80;;;;;;5047688;28;20079;-62
2022/09/19 03:15:11;;;;;;;12.30;4.63;;;32.10;39.00;;;;;;5048317;28;20021;-63
2022/09/19 03:17:49;;;;;;;19.88;9.32;;;32.00;39.70;;;;;;5049761;28;20067;-63
2022/09/19 03:20:17;;;;;;;15.13;4.65;;;32.00;39.60;;;;;;5049586;28;20033;-63
2022/09/19 03:22:47;;;;;;;16.55;4.72;;;31.90;39.80;;;;;;5048454;28;20033;-62
2022/09/19 03:25:14;;;;;;;12.82;5.05;;;31.80;39.90;;;;;;5049755;28;20025;-63
2022/09/19 03:27:41;;;;;;;15.75;5.65;;;31.70;40.50;;;;;;5048450;28;20025;-63
2022/09/19 03:30:10;;;;;;;22.20;4.90;;;31.70;40.50;;;;;;5048828;28;20394;-63
2022/09/19 03:32:39;;;;;;;17.08;5.30;;;31.60;41.00;;;;;;5047886;28;20036;-63
2022/09/19 03:35:06;;;;;;;18.10;5.28;;;31.50;41.40;;;;;;5052897;28;20025;-64
2022/09/19 03:37:33;;;;;;;20.17;5.65;;;31.50;41.50;;;;;;5048998;28;20032;-63
2022/09/19 03:40:01;;;;;;;20.10;5.10;;;31.50;41.60;;;;;;5048618;28;20032;-63
2022/09/19 03:42:28;;;;;;;11.63;4.93;;;31.40;42.00;;;;;;5048721;28;20106;-62
2022/09/19 03:44:55;;;;;;;25.77;5.72;;;31.30;42.30;;;;;;5046701;28;20025;-63
2022/09/19 03:47:21;;;;;;;18.25;5.35;;;31.30;42.50;;;;;;5048714;28;20028;-63
2022/09/19 03:49:51;;;;;;;17.52;5.20;;;31.20;42.90;;;;;;5048827;28;20435;-64
2022/09/19 03:52:18;;;;;;;20.65;5.63;;;31.20;42.90;;;;;;5048169;28;20032;-62
2022/09/19 03:54:45;;;;;;;16.30;4.85;;;31.10;43.30;;;;;;5048140;28;20024;-63
2022/09/19 03:57:14;;;;;;;16.50;5.30;;;31.10;43.50;;;;;;5048145;28;20078;-63
2022/09/19 03:59:42;;;;;;;17.73;5.72;;;31.00;43.70;;;;;;5049068;28;20028;-62
2022/09/19 04:02:10;;;;;;;18.90;5.53;;;31.00;44.10;;;;;;5048952;28;20036;-63
2022/09/19 04:04:38;;;;;;;17.70;5.25;;;31.00;44.00;;;;;;5048642;28;20116;-63
2022/09/19 04:07:05;;;;;;;16.95;5.88;;;31.00;44.90;;;;;;5050562;28;20486;-65
2022/09/19 04:09:31;;;;;;;14.60;5.15;;;30.80;44.60;;;;;;5047503;28;20128;-63
2022/09/19 04:11:59;;;;;;;20.33;6.38;;;30.80;44.80;;;;;;5049165;28;20487;-62
2022/09/19 04:14:26;;;;;;;18.95;5.90;;;30.70;44.80;;;;;;5063687;28;20025;-64
2022/09/19 04:16:52;;;;;;;17.05;5.38;;;30.70;44.80;;;;;;5015139;28;20029;-62
2022/09/19 04:19:19;;;;;;;17.27;5.53;;;30.70;45.10;;;;;;5047650;28;20032;-63
2022/09/19 04:21:46;;;;;;;18.88;5.57;;;30.60;45.20;;;;;;5047406;28;20075;-63
2022/09/19 04:24:13;;;;;;;18.15;6.05;;;30.60;45.30;;;;;;5048453;28;20024;-63
2022/09/19 04:26:43;;;;;;;17.33;5.93;;;30.50;45.50;;;;;;5047474;28;20090;-62
2022/09/19 04:29:10;;;;;;;15.63;5.55;;;30.50;45.50;;;;;;5047598;28;20021;-62
2022/09/19 04:31:39;;;;;;;21.80;6.47;;;30.40;45.60;;;;;;5047650;28;20021;-63
2022/09/19 04:34:14;;;;;;;17.80;5.57;;;30.40;46.00;;;;;;5047346;28;20032;-63
2022/09/19 04:36:41;;;;;;;15.85;5.72;;;30.40;46.00;;;;;;5048701;28;20028;-61
2022/09/19 04:39:08;;;;;;;20.70;5.55;;;30.40;46.10;;;;;;5064422;28;20025;-62
2022/09/19 04:41:35;;;;;;;16.27;4.82;;;30.30;46.00;;;;;;5047527;28;20135;-62
2022/09/19 04:44:04;;;;;;;16.60;5.30;;;30.30;46.00;;;;;;5047245;28;20194;-62
2022/09/19 04:46:32;;;;;;;20.42;5.40;;;30.30;46.10;;;;;;5050861;28;20029;-63
2022/09/19 04:49:00;;;;;;;21.63;5.38;;;30.30;46.00;;;;;;5050499;28;20060;-63
2022/09/19 04:51:30;;;;;;;24.08;5.22;;;30.30;47.00;;;;;;5052264;28;20112;-63
2022/09/19 04:53:57;;;;;;;15.25;5.40;;;30.20;46.60;;;;;;5053352;28;20086;-62
2022/09/19 04:56:26;;;;;;;16.80;5.50;;;30.20;47.00;;;;;;5052128;28;20029;-63
2022/09/19 04:58:52;;;;;;;19.63;5.38;;;30.10;46.90;;;;;;5051436;28;20398;-63
2022/09/19 05:01:19;;;;;;;13.25;5.22;;;30.10;47.50;;;;;;5052783;28;20028;-63
2022/09/19 05:03:45;;;;;;;15.70;5.57;;;30.00;48.00;;;;;;5052296;28;20142;-62
2022/09/19 05:06:14;;;;;;;17.85;5.75;;;29.90;47.60;;;;;;5054866;28;20376;-63
2022/09/19 05:08:40;;;;;;;12.95;5.75;;;29.90;47.30;;;;;;5054185;28;20478;-62
2022/09/19 05:11:08;;;;;;;18.75;6.35;;;29.90;47.60;;;;;;5051455;28;20398;-63
2022/09/19 05:13:40;;;;;;;26.98;6.85;;;29.90;48.20;;;;;;5054926;28;20053;-63
2022/09/19 05:16:07;;;;;;;13.48;5.93;;;29.80;48.50;;;;;;5049551;28;20028;-62
2022/09/19 05:18:37;;;;;;;18.77;6.57;;;29.80;49.60;;;;;;5051246;28;20044;-62
2022/09/19 05:21:10;;;;;;;24.52;6.53;;;29.70;49.90;;;;;;5050646;28;20025;-64
2022/09/19 05:23:37;;;;;;;17.48;5.57;;;29.70;49.90;;;;;;5018549;28;20116;-62
2022/09/19 05:26:09;;;;;;;14.23;5.47;;;29.60;49.80;;;;;;5050109;28;20033;-64
2022/09/19 05:28:37;;;;;;;20.58;6.55;;;29.60;48.90;;;;;;5035582;28;20159;-64
2022/09/19 05:31:06;;;;;;;25.52;8.02;;;29.50;49.50;;;;;;5051941;28;20032;-62
2022/09/19 05:33:33;;;;;;;27.52;9.40;;;29.50;49.40;;;;;;5050053;28;20021;-61
2022/09/19 05:36:01;;;;;;;30.73;9.45;;;29.50;49.50;;;;;;5051075;28;20029;-65
2022/09/19 05:38:30;;;;;;;26.15;12.85;;;29.40;49.70;;;;;;5037066;28;20033;-62
2022/09/19 05:40:59;;;;;;;23.15;8.63;;;29.40;49.40;;;;;;5051750;28;20025;-64
2022/09/19 05:43:26;;;;;;;28.90;7.07;;;29.40;49.80;;;;;;5068611;28;20112;-62
2022/09/19 05:45:55;;;;;;;23.25;6.03;;;29.40;50.00;;;;;;5049803;28;20057;-63
2022/09/19 05:48:23;;;;;;;16.23;6.15;;;29.30;50.10;;;;;;5032634;28;20482;-63
2022/09/19 05:50:51;;;;;;;17.20;5.47;;;29.30;50.10;;;;;;5050119;28;20487;-63
2022/09/19 05:56:04;;;;;;;24.48;6.47;;;29.20;50.50;;;;;;5048468;28;20376;-62
2022/09/19 05:58:33;;;;;;;25.25;6.45;;;29.20;50.50;;;;;;5050191;28;20024;-62
2022/09/19 06:01:03;;;;;;;20.92;6.53;;;29.10;50.10;;;;;;5049721;28;20024;-63
2022/09/19 06:03:31;;;;;;;20.90;6.93;;;29.10;50.40;;;;;;5052036;28;20036;-63
2022/09/19 06:05:57;;;;;;;18.77;5.65;;;29.10;50.60;;;;;;5050987;28;20036;-63
2022/09/19 06:08:24;;;;;;;16.02;6.03;;;29.00;51.10;;;;;;5055482;28;20021;-63
2022/09/19 06:10:51;;;;;;;15.90;5.05;;;28.90;51.10;;;;;;5050623;28;20033;-63
2022/09/19 06:13:18;;;;;;;17.00;4.90;;;28.80;51.10;;;;;;5050768;28;20441;-63
2022/09/19 06:15:45;;;;;;;18.20;5.35;;;28.80;51.50;;;;;;5053386;28;20017;-62
2022/09/19 06:18:14;;;;;;;18.50;5.20;;;28.60;51.40;;;;;;5050595;28;20021;-63
2022/09/19 06:20:42;;;;;;;24.63;5.90;;;28.70;51.60;;;;;;5051595;28;20040;-62
2022/09/19 06:23:10;;;;;;;22.45;5.63;;;28.80;51.60;;;;;;5053692;28;20021;-64
2022/09/19 06:25:41;;;;;;;14.70;5.60;;;28.70;51.60;;;;;;5051018;28;20017;-63
2022/09/19 06:28:11;;;;;;;19.70;5.13;;;28.70;51.20;;;;;;5049795;28;20044;-63
2022/09/19 06:30:38;;;;;;;20.27;6.00;;;28.70;51.60;;;;;;5048846;28;20021;-63
2022/09/19 06:33:06;;;;;;;21.85;5.78;;;28.60;51.60;;;;;;5049381;28;20047;-63
2022/09/19 06:35:33;;;;;;;15.55;5.70;;;28.60;51.30;;;;;;5051123;28;20020;-62
2022/09/19 06:38:02;;;;;;;12.43;4.57;;;28.60;51.40;;;;;;5033459;28;20052;-62
2022/09/19 06:40:29;;;;;;;19.08;5.15;;;28.50;51.60;;;;;;5050903;28;20029;-63
2022/09/19 06:43:03;;;;;;;17.92;5.00;;;28.40;51.80;;;;;;5049597;28;20021;-62
2022/09/19 06:45:38;;;;;;;21.63;5.72;;;28.40;51.90;;;;;;5049562;28;20018;-64
2022/09/19 06:48:05;;;;;;;17.13;5.78;;;28.40;51.90;;;;;;5046073;28;20533;-62
2022/09/19 06:50:32;;;;;;;27.77;5.78;;;28.30;52.10;;;;;;5050053;28;20021;-62
2022/09/19 06:52:59;;;;;;;21.65;5.70;;;28.30;52.40;;;;;;5032222;28;20105;-63
2022/09/19 06:55:27;;;;;;;12.73;4.93;;;28.30;52.50;;;;;;5032114;28;20482;-62
2022/09/19 06:57:55;;;;;;;22.88;5.57;;;28.30;52.90;;;;;;5033097;28;20067;-62
2022/09/19 07:00:24;;;;;;;23.17;6.03;;;28.30;52.40;;;;;;5048594;28;20021;-62
2022/09/19 07:02:59;;;;;;;21.27;6.10;;;28.20;52.20;;;;;;5048913;28;20505;-62
2022/09/19 07:05:27;;;;;;;13.95;5.72;;;28.20;52.30;;;;;;5050590;28;20497;-62
2022/09/19 07:07:54;;;;;;;20.25;5.40;;;28.20;52.30;;;;;;5051054;28;20025;-61
2022/09/19 07:10:20;;;;;;;22.00;5.30;;;28.20;52.50;;;;;;5049529;28;20045;-62
2022/09/19 07:13:01;;;;;;;19.92;5.65;;;28.10;52.40;;;;;;5048872;28;20032;-62
2022/09/19 07:15:30;;;;;;;20.90;5.38;;;28.10;52.20;;;;;;5048969;28;20387;-62
2022/09/19 07:17:57;;;;;;;22.92;5.78;;;28.00;52.10;;;;;;5048022;28;20053;-62
2022/09/19 07:20:25;;;;;;;24.88;5.93;;;27.90;52.50;;;;;;5048738;28;20406;-63
2022/09/19 07:23:01;;;;;;;20.88;5.85;;;27.90;52.50;;;;;;5032539;28;20479;-62
2022/09/19 07:25:28;;;;;;;21.20;4.90;;;27.90;52.70;;;;;;5050007;28;20039;-62
2022/09/19 07:28:06;;;;;;;21.92;5.82;;;28.00;52.80;;;;;;5049272;28;20055;-63
2022/09/19 07:30:34;;;;;;;25.25;5.60;;;27.90;52.60;;;;;;5048360;28;20028;-65
2022/09/19 07:33:03;;;;;;;16.13;5.40;;;28.00;52.90;;;;;;5047736;28;20021;-62
2022/09/19 07:35:33;;;;;;;21.15;4.75;;;28.00;52.80;;;;;;5048948;28;20020;-63
2022/09/19 07:38:01;;;;;;;28.10;6.22;;;28.00;53.00;;;;;;5032030;28;20364;-62
2022/09/19 07:40:28;;;;;;;24.92;5.70;;;28.00;54.00;;;;;;5048343;28;20270;-63
2022/09/19 07:43:01;;;;;;;22.15;5.28;;;27.80;53.90;;;;;;5047899;28;20029;-63
2022/09/19 07:45:28;;;;;;;19.60;5.03;;;27.70;54.10;;;;;;5032116;28;20029;-62
2022/09/19 07:47:57;;;;;;;19.98;5.10;;;27.80;54.10;;;;;;5030363;28;20071;-62
2022/09/19 07:50:24;;;;;;;21.70;5.75;;;27.70;54.10;;;;;;5046995;28;20067;-63
2022/09/19 07:53:06;;;;;;;20.85;5.10;;;27.70;54.10;;;;;;5047882;28;20025;-63
2022/09/19 07:55:33;;;;;;;30.25;5.63;;;27.70;53.60;;;;;;5047969;28;20498;-64
2022/09/19 07:58:00;;;;;;;19.20;4.70;;;27.70;53.20;;;;;;5048874;28;20095;-63
2022/09/19 08:00:28;;;;;;;21.00;5.30;;;27.70;53.20;;;;;;5031000;28;20499;-63
2022/09/19 08:03:03;;;;;;;25.00;5.25;;;27.70;53.30;;;;;;5046999;28;20116;-63
2022/09/19 08:05:34;;;;;;;26.73;5.53;;;27.60;53.40;;;;;;5049017;28;20509;-63
2022/09/19 08:08:01;;;;;;;20.00;4.90;;;27.60;53.40;;;;;;5050887;28;20446;-63
2022/09/19 08:10:27;;;;;;;24.30;4.65;;;27.60;53.50;;;;;;5047392;28;20055;-64
2022/09/19 08:12:58;;;;;;;19.48;5.07;;;27.50;53.20;;;;;;5030882;28;20387;-62
2022/09/19 08:15:25;;;;;;;18.63;4.88;;;27.50;53.50;;;;;;5046861;28;20024;-61
2022/09/19 08:18:00;;;;;;;18.63;4.93;;;27.50;53.30;;;;;;5047453;28;20021;-63
2022/09/19 08:20:31;;;;;;;25.92;4.82;;;27.40;52.20;;;;;;5048383;28;20436;-62
2022/09/19 08:22:59;;;;;;;22.75;4.22;;;27.40;50.90;;;;;;5030559;28;20394;-63
2022/09/19 08:25:32;;;;;;;15.73;4.05;;;27.40;51.00;;;;;;5047059;28;20035;-61
2022/09/19 08:27:59;;;;;;;20.42;4.53;;;27.50;50.20;;;;;;5046545;28;20033;-62
2022/09/19 08:30:29;;;;;;;14.35;3.95;;;27.40;50.20;;;;;;5046655;28;20522;-62
2022/09/19 08:32:56;;;;;;;22.25;4.13;;;27.40;49.50;;;;;;5048630;28;20024;-61
2022/09/19 08:35:23;;;;;;;16.80;4.35;;;27.50;49.60;;;;;;5030808;28;20045;-62
2022/09/19 08:37:55;;;;;;;29.67;4.57;;;27.40;49.80;;;;;;5047430;28;20462;-62
2022/09/19 08:40:43;;;;;;;17.30;4.43;;;27.40;49.80;;;;;;5047317;28;20033;-61
2022/09/19 08:43:29;;;;;;;14.43;4.35;;;27.40;50.00;;;;;;5046255;28;20051;-61
2022/09/19 08:46:15;;;;;;;18.05;3.92;;;27.30;50.30;;;;;;5048474;28;20029;-62
2022/09/19 08:48:54;;;;;;;28.27;5.13;;;27.30;50.80;;;;;;5046041;28;20049;-60
2022/09/19 08:51:52;;;;;;;20.50;4.45;;;27.30;51.20;;;;;;5048263;28;20029;-61
2022/09/19 08:54:30;;;;;;;27.85;5.22;;;27.20;51.50;;;;;;5043572;28;20546;-62
2022/09/19 08:56:59;;;;;;;16.17;4.40;;;27.20;52.00;;;;;;5047420;28;20040;-62
2022/09/19 08:59:32;;;;;;;23.60;4.90;;;27.20;52.60;;;;;;5047223;28;20559;-62
2022/09/19 09:02:07;;;;;;;18.95;5.25;;;27.10;52.70;;;;;;5046959;28;20147;-62
2022/09/19 09:04:35;;;;;;;22.23;4.90;;;27.10;52.60;;;;;;5030743;28;20025;-62
2022/09/19 09:07:35;;;;;;;19.50;5.68;;;27.10;53.70;;;;;;5054173;28;20273;-61
2022/09/19 09:10:21;;;;;;;20.73;6.03;;;27.00;53.50;;;;;;5045821;28;20048;-63
2022/09/19 09:12:47;;;;;;;20.42;6.15;;;27.00;53.70;;;;;;5047646;28;20028;-60
2022/09/19 09:15:58;;;;;;;27.02;6.53;;;26.90;54.60;;;;;;5046325;28;20048;-62
2022/09/19 09:18:57;;;;;;;26.35;7.25;;;26.90;54.90;;;;;;5046927;28;20064;-62
2022/09/19 09:21:54;;;;;;;30.77;7.88;;;26.90;55.10;;;;;;5046609;28;20096;-63
2022/09/19 09:24:24;;;;;;;27.70;6.93;;;26.80;55.10;;;;;;5046494;28;20144;-61
2022/09/19 09:26:54;;;;;;;28.10;7.10;;;26.80;55.30;;;;;;5046347;28;20021;-62
2022/09/19 09:29:39;;;;;;;28.25;8.57;;;26.80;56.60;;;;;;5046690;28;20017;-62
2022/09/19 09:32:07;;;;;;;26.88;6.43;;;26.70;56.20;;;;;;5033620;28;20020;-62
2022/09/19 09:34:43;;;;;;;23.27;6.30;;;26.60;55.20;;;;;;5051111;28;20017;-62
2022/09/19 09:37:19;;;;;;;22.33;6.65;;;26.70;55.50;;;;;;5050152;28;20025;-61
2022/09/19 09:40:01;;;;;;;26.85;6.55;;;26.60;55.60;;;;;;5049625;28;20035;-60
2022/09/19 09:42:55;;;;;;;28.95;6.60;;;26.60;56.70;;;;;;5049130;28;20025;-61
2022/09/19 09:45:44;;;;;;;27.95;7.13;;;26.50;56.00;;;;;;5054310;28;20435;-61
2022/09/19 09:48:32;;;;;;;17.23;5.45;;;26.50;56.50;;;;;;5049296;28;20079;-60
2022/09/19 09:51:19;;;;;;;34.30;6.45;;;26.50;55.60;;;;;;5063715;28;20025;-61
2022/09/19 09:57:32;;;;;;;22.70;6.38;;;26.50;55.00;;;;;;5050853;28;20083;-61
2022/09/19 10:03:36;;;;;;;23.00;6.05;;;26.40;55.80;;;;;;5050427;28;20091;-61
2022/09/19 10:06:30;;;;;;;21.45;5.43;;;26.30;55.40;;;;;;5060381;28;20017;-62
2022/09/19 10:09:18;;;;;;;22.52;5.43;;;26.30;54.80;;;;;;5049850;28;20039;-61
2022/09/19 10:12:03;;;;;;;23.73;5.25;;;26.30;54.90;;;;;;5050238;28;20040;-62
2022/09/19 10:14:30;;;;;;;21.75;5.95;;;26.20;54.60;;;;;;5048945;28;20490;-62
2022/09/19 10:17:01;;;;;;;20.02;4.97;;;26.20;55.50;;;;;;5049249;28;20039;-61
2022/09/19 10:19:41;;;;;;;20.08;5.22;;;26.20;55.00;;;;;;5050698;28;20021;-60
2022/09/19 10:22:15;;;;;;;22.80;5.00;;;26.10;54.40;;;;;;5049190;28;20041;-61
2022/09/19 10:24:52;;;;;;;17.98;5.53;;;26.00;54.10;;;;;;5033295;28;20395;-61
2022/09/19 10:27:26;;;;;;;17.40;5.00;;;26.10;53.80;;;;;;5049500;28;20094;-62
2022/09/19 10:30:11;;;;;;;14.68;5.50;;;26.10;53.40;;;;;;5032428;28;20056;-61
2022/09/19 10:32:37;;;;;;;20.83;6.53;;;26.10;52.90;;;;;;5049633;28;20113;-61
2022/09/19 10:35:34;;;;;;;22.50;6.78;;;26.10;53.40;;;;;;5050819;28;20108;-61
2022/09/19 10:38:14;;;;;;;20.77;7.23;;;26.10;53.00;;;;;;5048301;28;20036;-61
2022/09/19 10:41:01;;;;;;;27.08;7.85;;;26.10;52.70;;;;;;5032940;28;20132;-61
2022/09/19 10:43:31;;;;;;;24.08;7.68;;;26.10;51.90;;;;;;5049090;28;20029;-62
2022/09/19 10:46:15;;;;;;;24.48;7.47;;;26.10;52.10;;;;;;5049623;28;20049;-61
2022/09/19 10:48:50;;;;;;;24.58;7.75;;;26.10;51.90;;;;;;5049187;28;20021;-61
2022/09/19 10:51:17;;;;;;;23.70;8.35;;;26.00;51.80;;;;;;5031309;28;20374;-62
2022/09/19 10:53:52;;;;;;;24.80;7.70;;;25.90;53.40;;;;;;5031969;28;20079;-62
2022/09/19 10:56:32;;;;;;;19.67;7.30;;;25.90;53.50;;;;;;5049044;28;20025;-62
2022/09/19 10:59:04;;;;;;;24.30;8.10;;;25.90;52.60;;;;;;5049700;28;20501;-61
2022/09/19 11:01:30;;;;;;;18.42;7.25;;;25.90;52.60;;;;;;5048375;28;20035;-62
2022/09/19 11:03:59;;;;;;;24.58;7.90;;;25.80;51.80;;;;;;5049066;28;20135;-62
2022/09/19 11:06:26;;;;;;;24.25;7.68;;;25.80;52.80;;;;;;5051686;28;20021;-61
2022/09/19 11:08:54;;;;;;;25.17;7.70;;;25.80;52.50;;;;;;5049276;28;21583;-60
2022/09/19 11:11:45;;;;;;;24.02;7.95;;;25.90;52.10;;;;;;5048974;28;20487;-62
2022/09/19 11:14:19;;;;;;;23.95;7.32;;;25.80;52.00;;;;;;5034629;28;20017;-60
2022/09/19 11:17:23;;;;;;;22.42;8.30;;;25.80;52.70;;;;;;5050002;28;20032;-61
2022/09/19 11:20:17;;;;;;;22.25;7.45;;;25.70;52.50;;;;;;5049671;28;20031;-62
2022/09/19 11:23:01;;;;;;;20.33;7.95;;;25.70;52.30;;;;;;5047823;28;20576;-62
2022/09/19 11:25:58;;;;;;;26.88;8.63;;;25.60;52.60;;;;;;5048612;28;20401;-61
2022/09/19 11:28:45;;;;;;;22.15;8.13;;;25.70;52.20;;;;;;5051584;28;20576;-62
2022/09/19 11:31:17;;;;;;;28.10;8.45;;;25.60;52.20;;;;;;5031411;28;20061;-64
2022/09/19 11:33:55;;;;;;;25.20;7.60;;;25.60;52.40;;;;;;5047730;28;20379;-62
2022/09/19 11:36:25;;;;;;;27.73;8.50;;;25.50;52.40;;;;;;5032097;28;20108;-62
2022/09/19 11:39:05;;;;;;;27.33;8.57;;;25.60;52.70;;;;;;5048339;28;20062;-63
2022/09/19 11:42:01;;;;;;;26.45;8.35;;;25.50;53.50;;;;;;5048471;28;20174;-63
2022/09/19 11:45:01;;;;;;;22.20;7.70;;;25.50;53.20;;;;;;5031657;28;20040;-63
2022/09/19 11:48:05;;;;;;;23.58;7.50;;;25.40;54.10;;;;;;5048252;28;20383;-61
2022/09/19 11:50:54;;;;;;;26.20;7.65;;;25.30;55.70;;;;;;5046232;28;20097;-61
2022/09/19 11:53:42;;;;;;;20.67;7.60;;;25.30;54.90;;;;;;5062007;28;20035;-61
2022/09/19 11:56:40;;;;;;;28.52;7.90;;;25.20;55.40;;;;;;5046761;28;20636;-62
2022/09/19 11:59:25;;;;;;;26.52;8.95;;;25.20;55.10;;;;;;5048869;28;20410;-61
2022/09/19 12:02:09;;;;;;;19.80;8.68;;;25.20;54.60;;;;;;5047822;28;20141;-62
2022/09/19 12:04:55;;;;;;;29.73;8.27;;;25.10;55.20;;;;;;5048065;28;20520;-62
2022/09/19 12:07:27;;;;;;;29.67;8.40;;;25.10;56.10;;;;;;5048832;28;20046;-62
2022/09/19 12:10:45;;;;;;;28.30;8.98;;;25.00;55.10;;;;;;5049116;28;20032;-62
2022/09/19 12:13:19;;;;;;;22.33;8.50;;;25.00;55.10;;;;;;5002912;28;20124;-62
2022/09/19 12:15:53;;;;;;;20.17;7.18;;;25.00;55.60;;;;;;5001252;28;20106;-62
2022/09/19 12:18:22;;;;;;;25.45;7.85;;;25.00;55.10;;;;;;5000275;28;20031;-62
2022/09/19 12:20:53;;;;;;;19.23;7.13;;;25.00;55.00;;;;;;5004075;28;20135;-62
2022/09/19 12:26:34;;;;;;;22.20;8.15;;;24.90;54.70;;;;;;5002983;28;20071;-64
2022/09/19 12:29:22;;;;;;;25.23;7.43;;;24.90;55.10;;;;;;4984606;28;20047;-64
2022/09/19 12:31:58;;;;;;;26.35;7.63;;;24.90;55.00;;;;;;5005199;28;20425;-62
2022/09/19 12:35:01;;;;;;;20.67;7.50;;;24.90;54.90;;;;;;4987584;28;20062;-62
2022/09/19 12:38:02;;;;;;;20.65;7.47;;;24.90;54.80;;;;;;4948413;28;20520;-62
2022/09/19 12:40:53;;;;;;;20.00;7.72;;;24.80;56.30;;;;;;4947762;28;20049;-62
2022/09/19 12:43:38;;;;;;;26.65;7.70;;;24.80;55.30;;;;;;4947847;28;20042;-62
2022/09/19 12:46:17;;;;;;;24.98;7.47;;;24.80;55.20;;;;;;4949229;28;20097;-63
2022/09/19 12:48:47;;;;;;;27.25;7.53;;;24.80;55.20;;;;;;4954170;28;20471;-63
2022/09/19 12:51:42;;;;;;;24.88;7.10;;;24.80;55.50;;;;;;4987294;28;20388;-62
2022/09/19 12:54:15;;;;;;;21.02;7.38;;;24.80;55.50;;;;;;4970671;28;20124;-63
2022/09/19 12:56:58;;;;;;;22.73;7.50;;;24.80;55.40;;;;;;4970744;28;20082;-60
2022/09/19 12:59:26;;;;;;;16.65;6.82;;;24.70;55.80;;;;;;4971250;28;20049;-62
2022/09/19 13:02:01;;;;;;;19.75;6.28;;;24.70;56.70;;;;;;4971140;28;20136;-62
2022/09/19 13:04:43;;;;;;;23.20;7.22;;;24.70;56.50;;;;;;4971957;28;20045;-62
2022/09/19 13:07:30;;;;;;;24.35;7.32;;;24.80;56.30;;;;;;4994368;28;20489;-62
2022/09/19 13:10:36;;;;;;;21.00;7.37;;;24.80;56.20;;;;;;4974147;28;20186;-60
2022/09/19 13:13:22;;;;;;;24.05;7.82;;;24.80;56.60;;;;;;4993814;28;20504;-63
2022/09/19 13:15:58;;;;;;;38.80;8.98;;;24.70;57.60;;;;;;5009836;28;20538;-61
2022/09/19 13:24:04;;;;;;;34.45;8.57;;;24.70;56.90;;;;;;5009620;28;20064;-62
2022/09/19 13:26:37;;;;;;;38.60;9.05;;;24.70;56.70;;;;;;4993670;28;20055;-61
2022/09/19 13:29:28;;;;;;;36.97;8.40;;;24.70;56.80;;;;;;4993046;28;20191;-60
2022/09/19 13:31:59;;;;;;;38.78;8.35;;;24.70;56.90;;;;;;4993523;28;20056;-62
2022/09/19 13:35:03;;;;;;;32.63;8.02;;;24.70;56.80;;;;;;4993415;28;20127;-62
2022/09/19 13:37:30;;;;;;;31.45;8.60;;;24.70;56.60;;;;;;4982908;28;21062;-61
2022/09/19 13:40:19;;;;;;;35.17;8.98;;;24.80;56.70;;;;;;4993475;28;20030;-62